• Join FlightAware (Why Join?)
  • Login
  • US Flag 
09:03AM EDT


 

Airport Tracker/Info


-or-


 

Live Flight TrackerFlight Track Log ✈ SKW5162 ✈ 16-May-2013 ✈ KIAH - KMCO

Flight Track Log - Related Links

Times and Time Zones

All times are in EDT time to prevent confusion due to time zone crossing. See the SKW5162 flight status page for this flight to view local times or setup timezone preferences in your user account.

Time Position Orientation Groundspeed Altitude Reporting Facility
EDT Latitude Longitude Course Direction KTS MPH feet Rate Location/Type
01:15PM 29.9772 -95.3056 96° East 171 197 500  Level Houston Center
01:16PM 29.9683 -95.2100 96° East 231 266 3,400 1,740 Climbing Houston Center
01:17PM 29.9642 -95.1781 99° East 223 257 4,000 2,100 Climbing Houston Center
01:18PM 29.9519 -95.0853 99° East 280 322 6,500 2,340 Climbing Houston Center
01:19PM 29.9408 -94.9867 97° East 300 345 8,900 2,160 Climbing Houston Center
01:20PM 29.9286 -94.8844 98° East 315 362 11,100 1,800 Climbing Houston Center
01:21PM 29.9156 -94.7675 97° East 352 405 12,700 1,800 Climbing Houston Center
01:22PM 29.9008 -94.6461 98° East 376 433 14,900 1,980 Climbing Houston Center
01:23PM 29.8864 -94.5208 98° East 388 447 16,800 1,860 Climbing Houston Center
01:24PM 29.8678 -94.3650 98° East 404 465 18,800 1,920 Climbing Houston Center
01:25PM 29.8589 -94.2314 94° East 414 476 20,800 1,920 Climbing Houston Center
01:26PM 29.8558 -94.1139 92° East 411 473 22,900 1,800 Climbing Houston Center
01:27PM 29.8628 -93.9564 87° East 413 475 24,600 1,620 Climbing Houston Center
01:28PM 29.8783 -93.8208 82° East 426 490 26,300 1,380 Climbing Houston Center
01:29PM 29.8919 -93.6850 83° East 431 496 27,500 1,200 Climbing Houston Center
01:30PM 29.9069 -93.5450 83° East 441 507 28,900 1,140 Climbing Houston Center
01:31PM 29.9208 -93.4031 84° East 450 518 29,900 1,020 Climbing Houston Center
01:32PM 29.9386 -93.2294 83° East 461 531 31,100 960 Climbing Houston Center
01:33PM 29.9536 -93.0808 83° East 469 540 31,900 780 Climbing Houston Center
01:34PM 29.9689 -92.9289 83° East 478 550 32,800 780 Climbing Houston Center
01:35PM 29.9819 -92.7756 84° East 484 557 33,600 660 Climbing Houston Center
01:36PM 29.9969 -92.5853 85° East 497 572 34,200 600 Climbing Houston Center
01:37PM 30.0092 -92.4233 85° East 507 583 34,900 720 Climbing Houston Center
01:38PM 30.0225 -92.2619 85° East 510 587 35,800 780 Climbing Houston Center
01:40PM 30.0333 -92.1008 86° East 506 582 36,600 540 Climbing Houston Center
01:41PM 30.0469 -91.9386 84° East 510 587 37,000 180 Climbing Houston Center
01:42PM 30.0592 -91.7736 85° East 515 593 37,000  Level Houston Center
01:43PM 30.0744 -91.5789 85° East 521 600 37,000  Level Houston Center
01:44PM 30.0858 -91.4167 85° East 512 589 37,000  Level Houston Center
01:45PM 30.0972 -91.2564 85° East 504 580 37,000  Level Houston Center
01:46PM 30.1072 -91.0975 86° East 498 573 37,000  Level Houston Center
01:47PM 30.1206 -90.9344 85° East 508 585 37,000  Level Houston Center
01:48PM 30.1686 -90.7450 74° East 513 590 37,000  Level Houston Center
01:49PM 30.2061 -90.5856 75° East 515 593 37,000  Level Houston Center
01:50PM 30.2456 -90.4264 74° East 515 593 37,000  Level Houston Center
01:51PM 30.2842 -90.2678 74° East 514 592 37,000  Level Houston Center
01:52PM 30.3236 -90.1086 74° East 515 593 37,000  Level Houston Center
01:53PM 30.3606 -89.9486 75° East 514 592 37,000  Level Houston Center
01:54PM 30.4008 -89.7756 75° East 512 589 37,000  Level Houston Center
01:55PM 30.4397 -89.6172 74° East 516 594 37,000  Level Houston Center
01:56PM 30.4731 -89.4236 79° East 508 585 37,000  Level Houston Center
01:57PM 30.4947 -89.2633 81° East 505 581 37,000  Level Houston Center
01:58PM 30.5169 -89.1000 81° East 510 587 37,000  Level Houston Center
01:59PM 30.5364 -88.9394 82° East 508 585 37,000  Level Houston Center
02:00PM 30.5581 -88.7781 81° East 510 587 37,000  Level Houston Center
02:01PM 30.5853 -88.5828 81° East 514 592 37,000  Level Houston Center
02:02PM 30.6072 -88.4214 81° East 512 589 37,000  Level Houston Center
02:03PM 30.6289 -88.2597 81° East 513 590 37,000  Level Houston Center
02:04PM 30.6489 -88.0992 82° East 510 587 37,000  Level Houston Center
02:05PM 30.6708 -87.9389 81° East 509 586 37,000  Level Houston Center
02:06PM 30.6875 -87.8031 82° East 514 592 37,000  Level Jacksonville Center
02:07PM 30.7064 -87.6375 82° East 514 592 37,000  Level Jacksonville Center
02:08PM 30.7289 -87.4792 81° East 508 585 37,000  Level Jacksonville Center
02:09PM 30.7325 -87.3150 88° East 502 578 37,000  Level Jacksonville Center
02:10PM 30.7358 -87.1533 89° East 496 571 37,000  Level Jacksonville Center
02:11PM 30.7419 -86.9697 88° East 496 571 37,000  Level Jacksonville Center
02:12PM 30.7428 -86.8081 90° East 496 571 37,000 -60 Level Jacksonville Center
02:13PM 30.7497 -86.6464 87° East 496 571 36,900  Descending Jacksonville Center
02:14PM 30.7522 -86.4869 89° East 496 571 37,000  Climbing Jacksonville Center
02:15PM 30.7547 -86.3250 89° East 496 571 37,000  Level Jacksonville Center
02:16PM 30.7589 -86.1633 88° East 496 571 37,000  Level Jacksonville Center
02:17PM 30.7608 -86.0014 89° East 496 571 37,000  Level Jacksonville Center
02:18PM 30.7644 -85.8589 88° East 496 571 37,000  Level Jacksonville Center
02:19PM 30.7658 -85.6994 89° East 491 565 37,000  Level Jacksonville Center
02:20PM 30.7694 -85.5375 88° East 496 571 37,000  Level Jacksonville Center
02:21PM 30.7703 -85.3853 90° East 489 563 37,000  Level Jacksonville Center
02:22PM 30.7714 -85.2233 90° East 489 563 37,000  Level Jacksonville Center
02:23PM 30.7742 -85.0639 89° East 489 563 37,000  Level Jacksonville Center
02:24PM 30.7747 -84.9042 90° East 494 568 37,000 -360 Level Jacksonville Center
02:25PM 30.7394 -84.7511 105° East 494 568 36,300 -900 Descending Jacksonville Center
02:26PM 30.6914 -84.6006 110° East 488 562 35,300 -1,020 Descending Jacksonville Center
02:27PM 30.6331 -84.4378 113° Southeast 488 562 34,300 -1,020 Descending Jacksonville Center
02:28PM 30.5844 -84.2922 111° Southeast 488 562 33,300 -660 Descending Jacksonville Center
02:29PM 30.5403 -84.1444 109° East 488 562 33,000 -180 Descending Jacksonville Center
02:30PM 30.4914 -83.9942 111° Southeast 493 567 33,000  Level Jacksonville Center
02:31PM 30.4447 -83.8467 110° East 493 567 33,000  Level Jacksonville Center
02:32PM 30.3956 -83.6994 111° Southeast 493 567 33,000 -360 Level Jacksonville Center
02:33PM 30.3483 -83.5544 111° Southeast 493 567 32,300 -2,400 Descending Jacksonville Center
02:34PM 30.2947 -83.4025 112° Southeast 493 567 28,300 -2,700 Descending Jacksonville Center
02:35PM 30.2492 -83.2581 110° East 493 567 27,000 -660 Descending Jacksonville Center
02:36PM 30.2017 -83.1136 111° Southeast 482 555 27,000 -240 Level Jacksonville Center
02:37PM 30.1517 -82.9694 112° Southeast 482 555 26,600 -540 Descending Jacksonville Center
02:38PM 30.1100 -82.8422 111° Southeast 476 548 26,000 -660 Descending Jacksonville Center
02:39PM 30.0597 -82.7006 112° Southeast 476 548 25,300 -540 Descending Jacksonville Center
02:40PM 30.0114 -82.5614 112° Southeast 476 548 25,000 -240 Descending Jacksonville Center
02:41PM 29.9422 -82.4394 123° Southeast 453 521 24,900 -60 Descending Jacksonville Center
02:42PM 29.8272 -82.3947 161° South 414 476 24,900  Level Jacksonville Center
02:43PM 29.7100 -82.3569 164° South 419 482 25,000 -840 Climbing Jacksonville Center
02:44PM 29.6011 -82.3025 157° South 424 488 23,300 -1,860 Descending Jacksonville Center
02:45PM 29.4925 -82.2483 157° South 429 494 21,300 -2,100 Descending Jacksonville Center
02:46PM 29.3897 -82.1942 155° Southeast 418 481 19,200 -1,980 Descending Jacksonville Center
02:47PM 29.2914 -82.1450 156° South 403 464 17,400 -1,860 Descending Jacksonville Center
02:48PM 29.1953 -82.0958 156° South 391 450 15,500 -1,860 Descending Jacksonville Center
02:49PM 29.1092 -82.0511 156° South 365 420 13,800 -1,620 Descending Jacksonville Center
02:50PM 29.0233 -82.0044 155° Southeast 352 405 12,300 -1,320 Descending Jacksonville Center
02:51PM 28.9375 -81.9603 156° South 340 391 11,200 -660 Descending Jacksonville Center
02:52PM 28.8683 -81.9111 148° Southeast 317 365 11,000 -840 Descending Jacksonville Center
02:53PM 28.8333 -81.8167 113° Southeast 288 331 9,700 -1,080 Descending Orlando TRACON
02:54PM 28.8167 -81.7500 106° East 271 312 9,000 -360 Descending Orlando TRACON
02:55PM 28.8000 -81.6500 101° East 276 318 9,000 -300 Level Orlando TRACON
02:56PM 28.7833 -81.5833 106° East 221 254 8,400 -960 Descending Orlando TRACON
02:57PM 28.7667 -81.5167 106° East 224 258 7,300 -1,320 Descending Orlando TRACON
02:58PM 28.7167 -81.4667 139° Southeast 223 257 6,100 -960 Descending Orlando TRACON
02:59PM 28.6833 -81.4167 127° Southeast 225 259 5,400 -1,020 Descending Orlando TRACON
03:00PM 28.6167 -81.3833 156° South 225 259 4,100 -1,320 Descending Orlando TRACON
03:01PM 28.5667 -81.3500 150° Southeast 203 234 2,600 -960 Descending Orlando TRACON
03:02PM 28.5333 -81.3333 156° South 155 178 2,200 -900 Descending Orlando TRACON
03:03PM 28.4833 -81.3333 180° South 141 162 900 -1,200 Descending Orlando TRACON
03:05PM 28.4294 -81.3090 180° South  Level Estimated
03:12PM 28.4294 -81.3090 24° Northeast  Level Estimated
03:13PM 28.4294 -81.3090 24° Northeast  Level Estimated
03:14PM 28.4294 -81.3090 24° Northeast  Level Estimated
03:15PM 28.4294 -81.3090 24° Northeast  Level Estimated